createdAt,value
2018-09-17T00:00:51.836Z,61.60
2018-09-17T00:03:20.211Z,62.00
2018-09-17T00:05:48.575Z,62.10
2018-09-17T00:08:16.927Z,62.10
2018-09-17T00:10:45.309Z,62.30
2018-09-17T00:13:13.689Z,62.60
2018-09-17T00:15:42.060Z,63.00
2018-09-17T00:18:10.420Z,63.50
2018-09-17T00:20:38.873Z,63.90
2018-09-17T00:23:07.338Z,64.10
2018-09-17T00:25:35.737Z,64.00
2018-09-17T00:28:04.172Z,64.40
2018-09-17T00:30:32.545Z,64.60
2018-09-17T00:33:01.045Z,64.90
2018-09-17T00:35:29.452Z,65.20
2018-09-17T00:37:57.836Z,65.30
2018-09-17T00:40:26.274Z,65.30
2018-09-17T00:42:54.706Z,64.70
2018-09-17T00:45:23.200Z,64.50
2018-09-17T00:47:51.635Z,64.60
2018-09-17T00:50:20.035Z,65.00
2018-09-17T00:52:48.819Z,65.10
2018-09-17T00:55:17.215Z,65.10
2018-09-17T00:57:45.653Z,65.20
2018-09-17T01:00:13.988Z,65.40
2018-09-17T01:02:42.402Z,65.90
2018-09-17T01:05:10.735Z,66.40
2018-09-17T01:07:39.139Z,66.70
2018-09-17T01:10:07.614Z,66.70
2018-09-17T01:12:36.046Z,66.80
2018-09-17T01:15:07.407Z,67.10
2018-09-17T01:17:35.765Z,67.70
2018-09-17T01:20:04.153Z,68.30
2018-09-17T01:22:32.640Z,68.50
2018-09-17T01:25:01.059Z,69.00
2018-09-17T01:27:29.459Z,69.20
2018-09-17T01:29:57.873Z,69.20
2018-09-17T01:32:26.338Z,69.30
2018-09-17T01:34:54.903Z,69.20
2018-09-17T01:37:23.371Z,69.20
2018-09-17T01:39:51.769Z,69.00
2018-09-17T01:42:20.212Z,68.70
2018-09-17T01:44:48.629Z,68.80
2018-09-17T01:47:17.013Z,68.90
2018-09-17T01:49:45.517Z,68.90
2018-09-17T01:52:13.940Z,68.40
2018-09-17T01:54:42.325Z,68.10
2018-09-17T01:57:10.705Z,67.80
2018-09-17T01:59:39.109Z,67.70
2018-09-17T02:02:08.592Z,67.80
2018-09-17T02:04:37.105Z,67.90
2018-09-17T02:07:06.566Z,68.00
2018-09-17T02:09:39.282Z,68.10
2018-09-17T02:12:08.966Z,68.30
2018-09-17T02:14:37.554Z,68.30
2018-09-17T02:17:06.342Z,68.10
2018-09-17T02:19:35.104Z,68.50
2018-09-17T02:22:03.511Z,68.50
2018-09-17T02:24:31.979Z,69.00
2018-09-17T02:27:00.345Z,68.90
2018-09-17T02:29:28.784Z,69.00
2018-09-17T02:31:57.181Z,69.30
2018-09-17T02:34:25.840Z,69.60
2018-09-17T02:36:54.382Z,69.60
2018-09-17T02:39:22.920Z,69.80
2018-09-17T02:41:51.338Z,69.60
2018-09-17T02:44:19.748Z,69.60
2018-09-17T02:46:48.139Z,69.70
2018-09-17T02:49:16.716Z,69.80
2018-09-17T02:51:45.294Z,70.10
2018-09-17T02:54:13.725Z,70.30
2018-09-17T02:56:42.245Z,70.60
2018-09-17T02:59:10.727Z,70.80
2018-09-17T03:01:39.102Z,70.70
2018-09-17T03:04:07.493Z,70.90
2018-09-17T03:06:35.865Z,71.20
2018-09-17T03:09:05.105Z,71.30
2018-09-17T03:11:33.664Z,71.40
2018-09-17T03:14:02.110Z,72.00
2018-09-17T03:16:30.567Z,72.40
2018-09-17T03:18:59.147Z,72.70
2018-09-17T03:21:27.595Z,72.60
2018-09-17T03:23:56.035Z,72.10
2018-09-17T03:26:24.453Z,71.90
2018-09-17T03:28:52.934Z,72.00
2018-09-17T03:31:21.430Z,72.10
2018-09-17T03:33:49.890Z,72.20
2018-09-17T03:36:18.399Z,73.10
2018-09-17T03:38:48.226Z,72.50
2018-09-17T03:41:17.503Z,72.80
2018-09-17T03:43:47.627Z,73.90
2018-09-17T03:46:16.106Z,74.60
2018-09-17T03:48:44.521Z,75.40
2018-09-17T03:51:13.399Z,76.10
2018-09-17T03:53:42.180Z,76.50
2018-09-17T03:56:10.715Z,76.20
2018-09-17T03:58:39.055Z,76.10
2018-09-17T04:01:07.568Z,75.80
2018-09-17T04:03:36.079Z,75.80
2018-09-17T04:06:04.546Z,76.10
2018-09-17T04:08:33.761Z,76.40
2018-09-17T04:11:02.293Z,76.60
2018-09-17T04:13:30.791Z,76.40
2018-09-17T04:16:06.005Z,76.10
2018-09-17T04:18:34.391Z,75.80
2018-09-17T04:21:02.847Z,75.20
2018-09-17T04:23:34.710Z,75.10
2018-09-17T04:26:04.439Z,74.90
2018-09-17T04:28:34.294Z,74.80
2018-09-17T04:31:02.770Z,75.00
2018-09-17T04:33:34.375Z,74.60
2018-09-17T04:36:02.900Z,74.80
2018-09-17T04:38:31.265Z,74.50
2018-09-17T04:40:59.683Z,74.40
2018-09-17T04:43:28.035Z,74.60
2018-09-17T04:45:56.416Z,75.00
2018-09-17T04:48:24.789Z,75.00
2018-09-17T04:50:53.174Z,74.40
2018-09-17T04:53:21.626Z,73.80
2018-09-17T04:55:50.145Z,73.30
2018-09-17T04:58:18.546Z,73.40
2018-09-17T05:00:46.989Z,73.60
2018-09-17T05:03:15.512Z,73.40
2018-09-17T05:05:43.964Z,72.90
2018-09-17T05:08:12.404Z,72.70
2018-09-17T05:10:40.942Z,73.00
2018-09-17T05:13:09.440Z,73.10
2018-09-17T05:15:37.803Z,73.10
2018-09-17T05:18:06.295Z,73.80
2018-09-17T05:20:34.746Z,73.90
2018-09-17T05:23:03.098Z,74.50
2018-09-17T05:25:31.607Z,75.50
2018-09-17T05:28:00.052Z,75.70
2018-09-17T05:30:28.455Z,75.60
2018-09-17T05:32:56.846Z,75.80
2018-09-17T05:35:25.437Z,75.90
2018-09-17T05:37:53.906Z,75.70
2018-09-17T05:40:22.325Z,75.90
2018-09-17T05:42:50.743Z,76.00
2018-09-17T05:45:19.158Z,75.90
2018-09-17T05:47:47.688Z,75.50
2018-09-17T05:50:16.114Z,75.40
2018-09-17T05:52:44.568Z,75.30
2018-09-17T05:55:12.989Z,75.30
2018-09-17T05:57:41.381Z,74.80
2018-09-17T06:00:09.851Z,74.40
2018-09-17T06:02:38.361Z,73.70
2018-09-17T06:05:06.772Z,73.10
2018-09-17T06:07:35.159Z,72.50
2018-09-17T06:10:03.804Z,72.30
2018-09-17T06:12:32.187Z,72.40
2018-09-17T06:15:00.557Z,72.60
2018-09-17T06:17:29.021Z,72.40
2018-09-17T06:19:57.443Z,71.80
2018-09-17T06:22:25.915Z,71.40
2018-09-17T06:24:54.374Z,72.10
2018-09-17T06:27:22.778Z,71.20
2018-09-17T06:29:51.200Z,71.10
2018-09-17T06:32:19.668Z,71.30
2018-09-17T06:34:48.068Z,71.90
2018-09-17T06:37:16.488Z,71.00
2018-09-17T06:39:44.931Z,69.80
2018-09-17T06:42:13.437Z,68.70
2018-09-17T06:44:42.257Z,67.90
2018-09-17T06:47:10.722Z,67.20
2018-09-17T06:49:39.172Z,66.60
2018-09-17T06:52:07.677Z,66.50
2018-09-17T06:54:36.138Z,65.90
2018-09-17T06:57:04.867Z,65.50
2018-09-17T06:59:33.440Z,64.40
2018-09-17T07:02:02.112Z,63.70
2018-09-17T07:04:30.575Z,63.10
2018-09-17T07:06:58.983Z,61.70
2018-09-17T07:09:27.441Z,61.60
2018-09-17T07:11:55.848Z,60.60
2018-09-17T07:14:24.243Z,59.80
2018-09-17T07:16:52.608Z,59.30
2018-09-17T07:19:21.138Z,59.70
2018-09-17T07:21:49.631Z,59.30
2018-09-17T07:24:17.990Z,59.20
2018-09-17T07:26:46.398Z,58.20
2018-09-17T07:29:14.752Z,57.90
2018-09-17T07:31:43.230Z,57.20
2018-09-17T07:34:11.651Z,57.20
2018-09-17T07:36:40.035Z,56.20
2018-09-17T07:39:09.786Z,56.40
2018-09-17T07:41:38.231Z,55.40
2018-09-17T07:44:06.621Z,54.60
2018-09-17T07:46:35.225Z,54.20
2018-09-17T07:49:03.649Z,54.60
2018-09-17T07:51:32.038Z,53.60
2018-09-17T07:54:00.444Z,52.40
2018-09-17T07:56:29.242Z,51.50
2018-09-17T07:58:57.659Z,51.20
2018-09-17T08:01:26.300Z,50.80
2018-09-17T08:03:54.701Z,50.70
2018-09-17T08:06:23.069Z,50.10
2018-09-17T08:08:51.462Z,51.00
2018-09-17T08:11:19.956Z,50.90
2018-09-17T08:13:48.369Z,50.00
2018-09-17T08:16:16.809Z,49.10
2018-09-17T08:18:45.230Z,49.00
2018-09-17T08:21:13.681Z,48.20
2018-09-17T08:23:42.202Z,47.70
2018-09-17T08:26:10.606Z,46.90
2018-09-17T08:28:38.984Z,44.60
2018-09-17T08:31:07.358Z,43.30
2018-09-17T08:33:35.961Z,43.30
2018-09-17T08:36:04.341Z,43.50
2018-09-17T08:38:32.755Z,43.80
2018-09-17T08:41:01.144Z,43.10
2018-09-17T08:43:29.620Z,43.40
2018-09-17T08:45:58.041Z,43.60
2018-09-17T08:48:26.423Z,43.20
2018-09-17T08:50:54.807Z,42.20
2018-09-17T08:53:23.320Z,42.40
2018-09-17T08:55:57.032Z,42.10
2018-09-17T08:58:26.525Z,42.40
2018-09-17T09:00:55.931Z,42.30
2018-09-17T09:03:29.785Z,42.40
2018-09-17T09:06:03.539Z,41.60
2018-09-17T09:08:31.969Z,41.70
2018-09-17T09:11:05.746Z,41.60
2018-09-17T09:13:34.121Z,40.90
2018-09-17T09:16:02.502Z,40.80
2018-09-17T09:18:30.904Z,40.30
2018-09-17T09:20:59.266Z,40.40
2018-09-17T09:23:27.626Z,40.10
2018-09-17T09:25:56.047Z,40.10
2018-09-17T09:28:24.568Z,40.10
2018-09-17T09:30:53.145Z,39.60
2018-09-17T09:33:21.527Z,39.70
2018-09-17T09:35:49.894Z,39.60
2018-09-17T09:38:18.452Z,38.20
2018-09-17T09:40:46.916Z,36.00
2018-09-17T09:43:15.444Z,35.70
2018-09-17T09:45:43.828Z,35.70
2018-09-17T09:48:12.210Z,35.00
2018-09-17T09:50:40.692Z,34.40
2018-09-17T09:53:09.074Z,34.60
2018-09-17T09:55:37.505Z,34.80
2018-09-17T09:58:06.424Z,35.00
2018-09-17T10:00:40.251Z,34.50
2018-09-17T10:03:14.114Z,34.20
2018-09-17T10:05:42.516Z,33.50
2018-09-17T10:08:11.008Z,33.30
2018-09-17T10:10:44.808Z,33.60
2018-09-17T10:13:18.633Z,32.80
2018-09-17T10:15:55.320Z,30.90
2018-09-17T10:18:29.119Z,31.00
2018-09-17T10:20:57.704Z,31.00
2018-09-17T10:23:26.183Z,30.30
2018-09-17T10:25:54.746Z,30.20
2018-09-17T10:28:23.134Z,30.00
2018-09-17T10:30:51.545Z,30.00
2018-09-17T10:33:19.931Z,28.80
2018-09-17T10:35:48.335Z,29.00
2018-09-17T10:38:16.758Z,29.00
2018-09-17T10:40:45.194Z,29.10
2018-09-17T10:43:13.547Z,28.50
2018-09-17T10:45:41.960Z,28.20
2018-09-17T10:48:10.483Z,27.60
2018-09-17T10:50:38.833Z,27.20
2018-09-17T10:53:07.259Z,26.70
2018-09-17T10:55:35.623Z,26.50
2018-09-17T10:58:04.009Z,26.40
2018-09-17T11:00:32.488Z,26.60
2018-09-17T11:03:00.896Z,26.10
2018-09-17T11:05:29.355Z,25.90
2018-09-17T11:07:57.753Z,25.70
2018-09-17T11:10:26.197Z,26.20
2018-09-17T11:12:54.693Z,25.90
2018-09-17T11:15:27.285Z,25.40
2018-09-17T11:17:55.651Z,25.30
2018-09-17T11:20:24.025Z,25.10
2018-09-17T11:22:52.513Z,24.60
2018-09-17T11:25:20.913Z,24.00
2018-09-17T11:27:49.297Z,23.40
2018-09-17T11:30:17.687Z,23.60
2018-09-17T11:32:46.145Z,24.30
2018-09-17T11:35:14.503Z,24.00
2018-09-17T11:37:42.961Z,23.80
2018-09-17T11:40:11.371Z,23.80
2018-09-17T11:42:39.853Z,23.30
2018-09-17T11:45:08.297Z,23.20
2018-09-17T11:47:36.676Z,22.60
2018-09-17T11:50:05.167Z,22.40
2018-09-17T11:52:33.770Z,22.40
2018-09-17T11:55:09.045Z,22.80
2018-09-17T11:57:37.401Z,23.10
2018-09-17T12:00:05.847Z,23.40
2018-09-17T12:02:36.047Z,22.80
2018-09-17T12:05:06.141Z,22.70
2018-09-17T12:07:35.627Z,22.80
2018-09-17T12:10:04.418Z,22.40
2018-09-17T12:12:32.808Z,22.30
2018-09-17T12:15:01.282Z,21.70
2018-09-17T12:17:29.673Z,21.10
2018-09-17T12:19:58.139Z,21.10
2018-09-17T12:22:26.830Z,21.30
2018-09-17T12:24:55.349Z,21.30
2018-09-17T12:27:23.814Z,21.00
2018-09-17T12:29:58.892Z,20.70
2018-09-17T12:32:27.257Z,20.60
2018-09-17T12:34:55.670Z,20.90
2018-09-17T12:37:24.033Z,21.00
2018-09-17T12:39:52.467Z,21.30
2018-09-17T12:42:20.824Z,21.20
2018-09-17T12:44:49.260Z,21.20
2018-09-17T12:47:17.631Z,20.90
2018-09-17T12:49:46.003Z,21.40
2018-09-17T12:52:14.362Z,20.90
2018-09-17T12:54:42.729Z,20.90
2018-09-17T12:57:11.230Z,21.30
2018-09-17T12:59:39.653Z,20.70
2018-09-17T13:02:08.028Z,21.10
2018-09-17T13:04:36.406Z,21.10
2018-09-17T13:07:05.026Z,21.00
2018-09-17T13:09:33.395Z,20.80
2018-09-17T13:12:01.780Z,20.60
2018-09-17T13:14:30.149Z,20.00
2018-09-17T13:16:58.565Z,20.30
2018-09-17T13:19:27.037Z,20.50
2018-09-17T13:21:55.482Z,20.20
2018-09-17T13:24:23.889Z,20.30
2018-09-17T13:26:52.268Z,20.40
2018-09-17T13:29:20.655Z,20.10
2018-09-17T13:31:49.165Z,19.90
2018-09-17T13:34:17.857Z,19.50
2018-09-17T13:36:46.305Z,19.20
2018-09-17T13:39:14.748Z,19.10
2018-09-17T13:41:43.263Z,19.10
2018-09-17T13:44:11.678Z,19.30
2018-09-17T13:46:40.087Z,19.40
2018-09-17T13:49:08.482Z,19.80
2018-09-17T13:51:36.998Z,20.20
2018-09-17T13:54:05.437Z,20.70
2018-09-17T13:56:33.929Z,21.10
2018-09-17T13:59:02.357Z,21.70
2018-09-17T14:01:30.828Z,21.40
2018-09-17T14:03:59.243Z,21.30
2018-09-17T14:06:27.688Z,21.10
2018-09-17T14:08:56.175Z,20.80
2018-09-17T14:11:24.596Z,20.70
2018-09-17T14:13:53.003Z,20.40
2018-09-17T14:16:26.979Z,20.00
2018-09-17T14:18:55.405Z,20.20
2018-09-17T14:21:23.789Z,20.20
2018-09-17T14:23:52.181Z,20.50
2018-09-17T14:26:20.669Z,21.00
2018-09-17T14:28:49.220Z,20.80
2018-09-17T14:31:21.919Z,20.50
2018-09-17T14:33:50.342Z,22.20
2018-09-17T14:37:47.991Z,21.40
2018-09-17T14:40:16.370Z,21.40
2018-09-17T14:42:44.758Z,22.30
2018-09-17T14:45:13.276Z,21.80
2018-09-17T14:47:41.700Z,21.60
2018-09-17T14:50:11.619Z,21.80
2018-09-17T14:52:40.000Z,21.60
2018-09-17T14:55:08.472Z,22.10
2018-09-17T14:57:36.908Z,21.80
2018-09-17T15:00:05.278Z,21.80
2018-09-17T15:02:33.741Z,21.70
2018-09-17T15:05:02.164Z,21.60
2018-09-17T15:07:30.644Z,21.40
2018-09-17T15:09:59.651Z,20.90
2018-09-17T15:12:28.129Z,20.80
2018-09-17T15:14:56.639Z,20.80
2018-09-17T15:17:24.981Z,20.80
2018-09-17T15:19:53.378Z,20.80
2018-09-17T15:22:21.836Z,21.20
2018-09-17T15:24:50.551Z,21.30
2018-09-17T15:27:18.997Z,21.50
2018-09-17T15:29:48.175Z,21.40
2018-09-17T15:32:16.700Z,21.40
2018-09-17T15:34:44.962Z,21.40
2018-09-17T15:37:13.507Z,21.30
2018-09-17T15:39:41.898Z,21.60
2018-09-17T15:42:10.267Z,21.60
2018-09-17T15:44:38.611Z,21.50
2018-09-17T15:47:07.539Z,21.80
2018-09-17T15:49:35.919Z,21.90
2018-09-17T15:52:05.398Z,22.10
2018-09-17T15:54:33.816Z,22.60
2018-09-17T15:57:02.269Z,23.10
2018-09-17T15:59:30.656Z,23.60
2018-09-17T16:01:59.021Z,23.60
2018-09-17T16:04:27.428Z,23.80
2018-09-17T16:06:55.882Z,24.10
2018-09-17T16:09:24.352Z,24.30
2018-09-17T16:11:53.115Z,24.40
2018-09-17T16:14:22.316Z,24.70
2018-09-17T16:16:50.736Z,25.00
2018-09-17T16:19:19.150Z,25.40
2018-09-17T16:21:47.575Z,25.90
2018-09-17T16:24:16.012Z,26.10
2018-09-17T16:26:44.439Z,26.50
2018-09-17T16:29:12.854Z,26.60
2018-09-17T16:31:41.222Z,26.90
2018-09-17T16:34:09.739Z,27.00
2018-09-17T16:36:38.576Z,27.00
2018-09-17T16:39:08.592Z,27.30
2018-09-17T16:41:37.001Z,27.60
2018-09-17T16:44:05.417Z,27.90
2018-09-17T16:46:34.440Z,28.40
2018-09-17T16:49:03.035Z,28.50
2018-09-17T16:51:31.575Z,28.60
2018-09-17T16:54:00.242Z,28.30
2018-09-17T16:56:28.925Z,28.50
2018-09-17T16:58:57.498Z,28.80
2018-09-17T17:01:25.901Z,29.30
2018-09-17T17:03:55.278Z,29.00
2018-09-17T17:06:23.871Z,29.40
2018-09-17T17:08:52.270Z,29.30
2018-09-17T17:11:20.833Z,29.40
2018-09-17T17:13:49.081Z,29.60
2018-09-17T17:16:17.525Z,29.70
2018-09-17T17:18:45.948Z,30.30
2018-09-17T17:21:14.349Z,31.90
2018-09-17T17:23:42.726Z,33.00
2018-09-17T17:26:11.171Z,33.70
2018-09-17T17:28:40.145Z,35.10
2018-09-17T17:31:08.579Z,34.80
2018-09-17T17:33:36.957Z,35.00
2018-09-17T17:36:05.398Z,35.10
2018-09-17T17:38:33.825Z,35.20
2018-09-17T17:41:02.269Z,34.80
2018-09-17T17:43:30.654Z,35.10
2018-09-17T17:45:59.232Z,35.30
2018-09-17T17:48:27.650Z,35.70
2018-09-17T17:50:56.099Z,35.70
2018-09-17T17:53:24.525Z,36.00
2018-09-17T17:55:52.964Z,36.30
2018-09-17T17:58:21.404Z,36.40
2018-09-17T18:00:49.828Z,36.80
2018-09-17T18:03:18.269Z,37.00
2018-09-17T18:05:46.881Z,37.50
2018-09-17T18:08:15.263Z,37.70
2018-09-17T18:10:44.049Z,37.90
2018-09-17T18:13:12.488Z,38.10
2018-09-17T18:15:40.955Z,38.70
2018-09-17T18:18:09.372Z,39.30
2018-09-17T18:20:37.814Z,39.40
2018-09-17T18:23:06.561Z,39.60
2018-09-17T18:25:34.986Z,40.10
2018-09-17T18:28:03.459Z,40.10
2018-09-17T18:30:31.872Z,40.30
2018-09-17T18:33:00.308Z,40.80
2018-09-17T18:35:28.706Z,41.20
2018-09-17T18:37:57.143Z,41.50
2018-09-17T18:40:25.575Z,41.70
2018-09-17T18:42:54.013Z,42.30
2018-09-17T18:45:22.562Z,42.60
2018-09-17T18:47:50.987Z,42.80
2018-09-17T18:50:19.422Z,43.40
2018-09-17T18:52:47.883Z,43.40
2018-09-17T18:55:16.363Z,43.50
2018-09-17T18:57:44.759Z,43.80
2018-09-17T19:00:13.191Z,43.80
2018-09-17T19:02:41.622Z,43.80
2018-09-17T19:05:10.064Z,42.70
2018-09-17T19:07:38.537Z,42.20
2018-09-17T19:10:06.964Z,43.00
2018-09-17T19:12:35.430Z,44.20
2018-09-17T19:15:09.228Z,44.80
2018-09-17T19:17:41.898Z,45.80
2018-09-17T19:20:11.596Z,44.90
2018-09-17T19:22:45.574Z,45.20
2018-09-17T19:25:15.158Z,45.40
2018-09-17T19:27:48.970Z,45.80
2018-09-17T19:30:17.690Z,46.20
2018-09-17T19:32:46.045Z,45.90
2018-09-17T19:35:14.531Z,46.20
2018-09-17T19:37:48.358Z,47.00
2018-09-17T19:40:21.421Z,46.80
2018-09-17T19:42:50.444Z,47.00
2018-09-17T19:45:24.332Z,47.10
2018-09-17T19:47:53.185Z,47.30
2018-09-17T19:50:26.901Z,46.70
2018-09-17T19:52:55.355Z,46.50
2018-09-17T19:55:23.866Z,46.80
2018-09-17T19:57:57.661Z,47.30
2018-09-17T20:00:26.160Z,47.60
2018-09-17T20:02:54.506Z,47.60
2018-09-17T20:05:28.373Z,47.50
2018-09-17T20:07:56.802Z,46.40
2018-09-17T20:10:25.248Z,46.10
2018-09-17T20:12:53.679Z,46.80
2018-09-17T20:15:22.042Z,48.90
2018-09-17T20:17:50.455Z,49.80
2018-09-17T20:20:18.881Z,50.20
2018-09-17T20:22:47.343Z,50.80
2018-09-17T20:25:15.716Z,50.10
2018-09-17T20:27:44.127Z,50.20
2018-09-17T20:30:12.501Z,49.30
2018-09-17T20:32:40.935Z,49.60
2018-09-17T20:35:09.372Z,49.40
2018-09-17T20:37:37.763Z,50.30
2018-09-17T20:40:06.143Z,51.40
2018-09-17T20:42:34.534Z,52.60
2018-09-17T20:45:02.941Z,52.80
2018-09-17T20:47:31.367Z,52.00
2018-09-17T20:49:59.799Z,52.90
2018-09-17T20:52:28.236Z,53.70
2018-09-17T20:54:56.892Z,54.20
2018-09-17T20:57:25.297Z,54.70
2018-09-17T20:59:53.686Z,55.20
2018-09-17T21:02:22.131Z,55.30
2018-09-17T21:04:50.615Z,55.10
2018-09-17T21:07:19.157Z,54.10
2018-09-17T21:09:47.496Z,53.50
2018-09-17T21:12:15.955Z,53.20
2018-09-17T21:14:44.381Z,51.60
2018-09-17T21:17:12.814Z,50.30
2018-09-17T21:19:41.272Z,48.60
2018-09-17T21:22:09.669Z,49.40
2018-09-17T21:24:38.072Z,48.20
2018-09-17T21:27:06.140Z,48.60
2018-09-17T21:29:34.539Z,48.90
2018-09-17T21:32:03.105Z,48.40
2018-09-17T21:34:31.618Z,48.50
2018-09-17T21:37:00.156Z,49.50
2018-09-17T21:39:28.460Z,50.40
2018-09-17T21:41:56.847Z,50.60
2018-09-17T21:44:25.262Z,51.00
2018-09-17T21:46:53.649Z,50.40
2018-09-17T21:49:21.997Z,49.00
2018-09-17T21:51:50.703Z,49.40
2018-09-17T21:54:19.092Z,49.80
2018-09-17T21:56:47.496Z,49.50
2018-09-17T21:59:15.905Z,49.20
2018-09-17T22:01:44.316Z,49.00
2018-09-17T22:04:12.801Z,49.10
2018-09-17T22:06:41.177Z,49.50
2018-09-17T22:09:09.540Z,48.90
2018-09-17T22:11:38.003Z,49.30
2018-09-17T22:14:06.431Z,50.10
2018-09-17T22:16:35.074Z,50.00
2018-09-17T22:19:03.402Z,49.70
2018-09-17T22:21:31.903Z,49.00
2018-09-17T22:24:00.373Z,48.80
2018-09-17T22:26:28.747Z,48.50
2018-09-17T22:28:57.156Z,48.50
2018-09-17T22:31:25.736Z,49.00
2018-09-17T22:33:54.170Z,49.40
2018-09-17T22:36:22.624Z,49.30
2018-09-17T22:38:51.041Z,49.60
2018-09-17T22:41:19.404Z,50.50
2018-09-17T22:43:48.120Z,50.50
2018-09-17T22:46:16.634Z,51.40
2018-09-17T22:48:45.069Z,51.20
2018-09-17T22:51:13.471Z,51.40
2018-09-17T22:53:41.837Z,51.40
2018-09-17T22:56:10.323Z,52.10
2018-09-17T22:58:38.858Z,52.00
2018-09-17T23:01:07.265Z,52.20
2018-09-17T23:03:35.685Z,52.60
2018-09-17T23:06:04.051Z,52.40
2018-09-17T23:08:32.432Z,52.30
2018-09-17T23:11:00.949Z,52.00
2018-09-17T23:13:29.378Z,52.30
2018-09-17T23:15:57.857Z,52.10
2018-09-17T23:18:26.233Z,52.20
2018-09-17T23:20:54.652Z,52.20
2018-09-17T23:23:23.069Z,52.40
2018-09-17T23:25:51.613Z,52.60
2018-09-17T23:28:20.061Z,52.90
2018-09-17T23:30:48.690Z,53.20
2018-09-17T23:33:17.130Z,53.40
2018-09-17T23:35:45.522Z,53.70
2018-09-17T23:38:13.942Z,53.90
2018-09-17T23:40:42.435Z,54.20
2018-09-17T23:43:10.817Z,54.40
2018-09-17T23:45:39.199Z,54.60
2018-09-17T23:48:07.627Z,54.60
2018-09-17T23:50:36.084Z,54.70
2018-09-17T23:53:04.493Z,54.40
2018-09-17T23:55:32.849Z,54.30
2018-09-17T23:58:01.268Z,54.80
